sensor_id;sensor_type;location;lat;lon;timestamp;P1;durP1;ratioP1;P2;durP2;ratioP2
15155;SDS011;7678;50.058;8.306;2023-09-19T00:01:09;4.50;;;2.57;;
15155;SDS011;7678;50.058;8.306;2023-09-19T00:03:38;6.03;;;2.80;;
15155;SDS011;7678;50.058;8.306;2023-09-19T00:06:09;4.47;;;2.53;;
15155;SDS011;7678;50.058;8.306;2023-09-19T00:08:39;4.37;;;2.70;;
15155;SDS011;7678;50.058;8.306;2023-09-19T00:11:12;6.47;;;2.57;;
15155;SDS011;7678;50.058;8.306;2023-09-19T00:13:40;3.70;;;2.30;;
15155;SDS011;7678;50.058;8.306;2023-09-19T00:16:11;5.20;;;2.57;;
15155;SDS011;7678;50.058;8.306;2023-09-19T00:18:40;5.37;;;2.40;;
15155;SDS011;7678;50.058;8.306;2023-09-19T00:21:09;4.37;;;2.60;;
15155;SDS011;7678;50.058;8.306;2023-09-19T00:23:37;4.93;;;2.90;;
15155;SDS011;7678;50.058;8.306;2023-09-19T00:26:07;5.97;;;2.80;;
15155;SDS011;7678;50.058;8.306;2023-09-19T00:28:39;4.73;;;2.63;;
15155;SDS011;7678;50.058;8.306;2023-09-19T00:31:10;6.23;;;2.90;;
15155;SDS011;7678;50.058;8.306;2023-09-19T00:33:43;4.40;;;2.70;;
15155;SDS011;7678;50.058;8.306;2023-09-19T00:36:12;3.30;;;2.70;;
15155;SDS011;7678;50.058;8.306;2023-09-19T00:38:40;5.77;;;2.67;;
15155;SDS011;7678;50.058;8.306;2023-09-19T00:41:12;5.37;;;2.90;;
15155;SDS011;7678;50.058;8.306;2023-09-19T00:43:41;5.57;;;3.30;;
15155;SDS011;7678;50.058;8.306;2023-09-19T00:46:11;4.27;;;2.83;;
15155;SDS011;7678;50.058;8.306;2023-09-19T00:48:41;5.73;;;3.07;;
15155;SDS011;7678;50.058;8.306;2023-09-19T00:51:10;6.90;;;3.00;;
15155;SDS011;7678;50.058;8.306;2023-09-19T00:53:40;5.97;;;3.07;;
15155;SDS011;7678;50.058;8.306;2023-09-19T00:56:12;4.53;;;2.97;;
15155;SDS011;7678;50.058;8.306;2023-09-19T00:58:41;4.37;;;2.80;;
15155;SDS011;7678;50.058;8.306;2023-09-19T01:01:09;7.63;;;2.90;;
15155;SDS011;7678;50.058;8.306;2023-09-19T01:03:38;5.87;;;2.90;;
15155;SDS011;7678;50.058;8.306;2023-09-19T01:06:09;3.40;;;2.70;;
15155;SDS011;7678;50.058;8.306;2023-09-19T01:08:38;7.67;;;2.97;;
15155;SDS011;7678;50.058;8.306;2023-09-19T01:11:09;6.23;;;2.60;;
15155;SDS011;7678;50.058;8.306;2023-09-19T01:13:42;4.33;;;2.47;;
15155;SDS011;7678;50.058;8.306;2023-09-19T01:16:16;4.80;;;3.23;;
15155;SDS011;7678;50.058;8.306;2023-09-19T01:18:50;8.77;;;2.97;;
15155;SDS011;7678;50.058;8.306;2023-09-19T01:21:26;5.47;;;2.73;;
15155;SDS011;7678;50.058;8.306;2023-09-19T01:29:42;7.00;;;3.30;;
15155;SDS011;7678;50.058;8.306;2023-09-19T01:32:13;5.37;;;2.90;;
15155;SDS011;7678;50.058;8.306;2023-09-19T01:34:46;3.90;;;3.03;;
15155;SDS011;7678;50.058;8.306;2023-09-19T01:37:15;5.07;;;2.67;;
15155;SDS011;7678;50.058;8.306;2023-09-19T01:39:46;4.60;;;2.80;;
15155;SDS011;7678;50.058;8.306;2023-09-19T01:42:18;8.90;;;3.47;;
15155;SDS011;7678;50.058;8.306;2023-09-19T01:44:51;5.70;;;3.20;;
15155;SDS011;7678;50.058;8.306;2023-09-19T01:47:26;5.13;;;3.17;;
15155;SDS011;7678;50.058;8.306;2023-09-19T01:49:58;8.40;;;3.70;;
15155;SDS011;7678;50.058;8.306;2023-09-19T01:52:30;8.87;;;3.53;;
15155;SDS011;7678;50.058;8.306;2023-09-19T01:55:02;4.00;;;3.40;;
15155;SDS011;7678;50.058;8.306;2023-09-19T01:57:34;4.97;;;3.60;;
15155;SDS011;7678;50.058;8.306;2023-09-19T02:00:04;6.03;;;3.50;;
15155;SDS011;7678;50.058;8.306;2023-09-19T02:02:36;8.50;;;3.93;;
15155;SDS011;7678;50.058;8.306;2023-09-19T02:05:06;4.57;;;3.73;;
15155;SDS011;7678;50.058;8.306;2023-09-19T02:07:34;6.80;;;3.67;;
15155;SDS011;7678;50.058;8.306;2023-09-19T02:10:04;4.93;;;3.10;;
15155;SDS011;7678;50.058;8.306;2023-09-19T02:12:33;5.37;;;3.50;;
15155;SDS011;7678;50.058;8.306;2023-09-19T02:15:02;5.43;;;3.43;;
15155;SDS011;7678;50.058;8.306;2023-09-19T02:17:33;8.23;;;3.67;;
15155;SDS011;7678;50.058;8.306;2023-09-19T02:20:03;6.63;;;3.40;;
15155;SDS011;7678;50.058;8.306;2023-09-19T02:22:37;5.03;;;3.60;;
15155;SDS011;7678;50.058;8.306;2023-09-19T02:25:05;5.63;;;3.50;;
15155;SDS011;7678;50.058;8.306;2023-09-19T02:27:34;6.07;;;3.40;;
15155;SDS011;7678;50.058;8.306;2023-09-19T02:30:03;7.03;;;3.87;;
15155;SDS011;7678;50.058;8.306;2023-09-19T02:32:32;8.97;;;4.37;;
15155;SDS011;7678;50.058;8.306;2023-09-19T02:35:07;10.07;;;3.90;;
15155;SDS011;7678;50.058;8.306;2023-09-19T02:37:38;4.30;;;3.50;;
15155;SDS011;7678;50.058;8.306;2023-09-19T02:40:07;8.10;;;3.60;;
15155;SDS011;7678;50.058;8.306;2023-09-19T02:42:45;5.77;;;3.60;;
15155;SDS011;7678;50.058;8.306;2023-09-19T02:45:15;6.70;;;3.83;;
15155;SDS011;7678;50.058;8.306;2023-09-19T02:47:45;7.13;;;4.30;;
15155;SDS011;7678;50.058;8.306;2023-09-19T02:50:15;8.20;;;4.20;;
15155;SDS011;7678;50.058;8.306;2023-09-19T02:52:44;8.23;;;4.17;;
15155;SDS011;7678;50.058;8.306;2023-09-19T02:55:14;5.17;;;3.53;;
15155;SDS011;7678;50.058;8.306;2023-09-19T02:57:47;5.90;;;4.33;;
15155;SDS011;7678;50.058;8.306;2023-09-19T03:00:16;5.63;;;3.73;;
15155;SDS011;7678;50.058;8.306;2023-09-19T03:02:47;4.30;;;3.20;;
15155;SDS011;7678;50.058;8.306;2023-09-19T03:05:17;7.70;;;3.87;;
15155;SDS011;7678;50.058;8.306;2023-09-19T03:07:47;6.30;;;3.67;;
15155;SDS011;7678;50.058;8.306;2023-09-19T03:10:17;5.27;;;3.57;;
15155;SDS011;7678;50.058;8.306;2023-09-19T03:12:45;4.63;;;3.47;;
15155;SDS011;7678;50.058;8.306;2023-09-19T03:15:14;5.97;;;3.70;;
15155;SDS011;7678;50.058;8.306;2023-09-19T03:17:43;9.53;;;4.10;;
15155;SDS011;7678;50.058;8.306;2023-09-19T03:20:12;6.53;;;3.90;;
15155;SDS011;7678;50.058;8.306;2023-09-19T03:22:45;6.90;;;3.50;;
15155;SDS011;7678;50.058;8.306;2023-09-19T03:25:14;10.00;;;3.80;;
15155;SDS011;7678;50.058;8.306;2023-09-19T03:27:44;8.23;;;4.10;;
15155;SDS011;7678;50.058;8.306;2023-09-19T03:30:12;7.47;;;3.73;;
15155;SDS011;7678;50.058;8.306;2023-09-19T03:32:44;6.53;;;3.60;;
15155;SDS011;7678;50.058;8.306;2023-09-19T03:35:16;7.57;;;3.80;;
15155;SDS011;7678;50.058;8.306;2023-09-19T03:37:46;6.40;;;3.73;;
15155;SDS011;7678;50.058;8.306;2023-09-19T03:40:15;6.37;;;4.13;;
15155;SDS011;7678;50.058;8.306;2023-09-19T03:42:43;4.97;;;3.40;;
15155;SDS011;7678;50.058;8.306;2023-09-19T03:45:12;6.63;;;3.30;;
15155;SDS011;7678;50.058;8.306;2023-09-19T03:47:42;7.13;;;3.30;;
15155;SDS011;7678;50.058;8.306;2023-09-19T03:50:13;3.77;;;3.33;;
15155;SDS011;7678;50.058;8.306;2023-09-19T03:52:44;4.93;;;3.60;;
15155;SDS011;7678;50.058;8.306;2023-09-19T03:55:13;5.90;;;3.20;;
15155;SDS011;7678;50.058;8.306;2023-09-19T03:57:42;4.70;;;3.20;;
15155;SDS011;7678;50.058;8.306;2023-09-19T04:00:16;7.50;;;3.60;;
15155;SDS011;7678;50.058;8.306;2023-09-19T04:02:47;9.10;;;3.33;;
15155;SDS011;7678;50.058;8.306;2023-09-19T04:05:16;5.13;;;3.90;;
15155;SDS011;7678;50.058;8.306;2023-09-19T04:07:44;10.90;;;3.47;;
15155;SDS011;7678;50.058;8.306;2023-09-19T04:10:14;6.07;;;4.00;;
15155;SDS011;7678;50.058;8.306;2023-09-19T04:12:50;6.43;;;3.97;;
15155;SDS011;7678;50.058;8.306;2023-09-19T04:15:19;8.67;;;3.97;;
15155;SDS011;7678;50.058;8.306;2023-09-19T04:17:48;7.63;;;3.83;;
15155;SDS011;7678;50.058;8.306;2023-09-19T04:20:17;6.43;;;3.63;;
15155;SDS011;7678;50.058;8.306;2023-09-19T04:22:49;8.37;;;3.50;;
15155;SDS011;7678;50.058;8.306;2023-09-19T04:25:21;9.40;;;3.83;;
15155;SDS011;7678;50.058;8.306;2023-09-19T04:27:49;3.93;;;3.10;;
15155;SDS011;7678;50.058;8.306;2023-09-19T04:30:17;7.73;;;3.53;;
15155;SDS011;7678;50.058;8.306;2023-09-19T04:32:47;7.53;;;3.90;;
15155;SDS011;7678;50.058;8.306;2023-09-19T04:35:20;7.73;;;3.53;;
15155;SDS011;7678;50.058;8.306;2023-09-19T04:37:51;5.27;;;3.47;;
15155;SDS011;7678;50.058;8.306;2023-09-19T04:40:22;11.07;;;4.00;;
15155;SDS011;7678;50.058;8.306;2023-09-19T04:42:53;7.73;;;3.93;;
15155;SDS011;7678;50.058;8.306;2023-09-19T04:45:27;8.23;;;3.77;;
15155;SDS011;7678;50.058;8.306;2023-09-19T04:47:56;4.83;;;3.77;;
15155;SDS011;7678;50.058;8.306;2023-09-19T04:50:25;6.17;;;3.93;;
15155;SDS011;7678;50.058;8.306;2023-09-19T04:52:54;7.27;;;3.93;;
15155;SDS011;7678;50.058;8.306;2023-09-19T04:55:24;6.83;;;3.60;;
15155;SDS011;7678;50.058;8.306;2023-09-19T04:57:53;8.47;;;3.20;;
15155;SDS011;7678;50.058;8.306;2023-09-19T05:00:23;8.00;;;3.63;;
15155;SDS011;7678;50.058;8.306;2023-09-19T05:02:56;8.33;;;3.80;;
15155;SDS011;7678;50.058;8.306;2023-09-19T05:05:24;5.30;;;3.27;;
15155;SDS011;7678;50.058;8.306;2023-09-19T05:07:53;7.07;;;3.47;;
15155;SDS011;7678;50.058;8.306;2023-09-19T05:10:22;6.77;;;3.87;;
15155;SDS011;7678;50.058;8.306;2023-09-19T05:12:53;6.20;;;3.90;;
15155;SDS011;7678;50.058;8.306;2023-09-19T05:15:24;8.53;;;3.80;;
15155;SDS011;7678;50.058;8.306;2023-09-19T05:17:52;8.90;;;5.00;;
15155;SDS011;7678;50.058;8.306;2023-09-19T05:20:23;8.47;;;4.17;;
15155;SDS011;7678;50.058;8.306;2023-09-19T05:22:59;8.93;;;4.60;;
15155;SDS011;7678;50.058;8.306;2023-09-19T05:25:34;7.20;;;4.00;;
15155;SDS011;7678;50.058;8.306;2023-09-19T05:28:07;7.97;;;4.10;;
15155;SDS011;7678;50.058;8.306;2023-09-19T05:30:38;9.63;;;4.53;;
15155;SDS011;7678;50.058;8.306;2023-09-19T05:33:06;9.27;;;4.20;;
15155;SDS011;7678;50.058;8.306;2023-09-19T05:35:35;8.93;;;4.10;;
15155;SDS011;7678;50.058;8.306;2023-09-19T05:38:08;12.93;;;5.20;;
15155;SDS011;7678;50.058;8.306;2023-09-19T05:40:39;14.07;;;6.57;;
15155;SDS011;7678;50.058;8.306;2023-09-19T05:43:10;13.93;;;6.73;;
15155;SDS011;7678;50.058;8.306;2023-09-19T05:45:38;17.97;;;7.20;;
15155;SDS011;7678;50.058;8.306;2023-09-19T05:48:07;10.67;;;6.50;;
15155;SDS011;7678;50.058;8.306;2023-09-19T05:50:36;16.17;;;7.70;;
15155;SDS011;7678;50.058;8.306;2023-09-19T05:53:04;22.40;;;10.53;;
15155;SDS011;7678;50.058;8.306;2023-09-19T05:55:33;23.67;;;10.13;;
15155;SDS011;7678;50.058;8.306;2023-09-19T05:58:02;22.70;;;10.33;;
15155;SDS011;7678;50.058;8.306;2023-09-19T06:00:32;24.60;;;11.10;;
15155;SDS011;7678;50.058;8.306;2023-09-19T06:03:04;21.97;;;10.83;;
15155;SDS011;7678;50.058;8.306;2023-09-19T06:05:33;24.40;;;11.00;;
15155;SDS011;7678;50.058;8.306;2023-09-19T06:08:03;16.57;;;8.27;;
15155;SDS011;7678;50.058;8.306;2023-09-19T06:10:34;18.20;;;10.07;;
15155;SDS011;7678;50.058;8.306;2023-09-19T06:13:03;19.97;;;8.33;;
15155;SDS011;7678;50.058;8.306;2023-09-19T06:15:34;12.80;;;7.63;;
15155;SDS011;7678;50.058;8.306;2023-09-19T06:18:02;12.67;;;6.37;;
15155;SDS011;7678;50.058;8.306;2023-09-19T06:20:32;13.80;;;6.10;;
15155;SDS011;7678;50.058;8.306;2023-09-19T06:23:00;13.70;;;5.20;;
15155;SDS011;7678;50.058;8.306;2023-09-19T06:25:31;7.97;;;4.80;;
15155;SDS011;7678;50.058;8.306;2023-09-19T06:27:59;10.53;;;4.87;;
15155;SDS011;7678;50.058;8.306;2023-09-19T06:30:29;10.37;;;4.50;;
15155;SDS011;7678;50.058;8.306;2023-09-19T06:33:00;9.93;;;4.33;;
15155;SDS011;7678;50.058;8.306;2023-09-19T06:35:31;9.73;;;4.60;;
15155;SDS011;7678;50.058;8.306;2023-09-19T06:38:02;10.53;;;4.70;;
15155;SDS011;7678;50.058;8.306;2023-09-19T06:40:30;9.77;;;4.73;;
15155;SDS011;7678;50.058;8.306;2023-09-19T06:42:58;11.57;;;4.77;;
15155;SDS011;7678;50.058;8.306;2023-09-19T06:45:28;11.90;;;4.37;;
15155;SDS011;7678;50.058;8.306;2023-09-19T06:47:59;10.47;;;5.17;;
15155;SDS011;7678;50.058;8.306;2023-09-19T06:50:29;14.00;;;5.60;;
15155;SDS011;7678;50.058;8.306;2023-09-19T06:52:57;14.20;;;6.90;;
15155;SDS011;7678;50.058;8.306;2023-09-19T06:55:26;12.83;;;5.77;;
15155;SDS011;7678;50.058;8.306;2023-09-19T06:57:58;11.20;;;5.47;;
15155;SDS011;7678;50.058;8.306;2023-09-19T07:00:26;12.13;;;5.03;;
15155;SDS011;7678;50.058;8.306;2023-09-19T07:02:57;8.73;;;4.47;;
15155;SDS011;7678;50.058;8.306;2023-09-19T07:05:30;6.63;;;3.70;;
15155;SDS011;7678;50.058;8.306;2023-09-19T07:07:59;7.10;;;3.47;;
15155;SDS011;7678;50.058;8.306;2023-09-19T07:10:28;8.03;;;3.00;;
15155;SDS011;7678;50.058;8.306;2023-09-19T07:12:56;9.37;;;3.20;;
15155;SDS011;7678;50.058;8.306;2023-09-19T07:15:25;7.30;;;3.57;;
15155;SDS011;7678;50.058;8.306;2023-09-19T07:17:54;6.60;;;3.30;;
15155;SDS011;7678;50.058;8.306;2023-09-19T07:20:24;8.23;;;2.73;;
15155;SDS011;7678;50.058;8.306;2023-09-19T07:22:53;8.40;;;3.33;;
15155;SDS011;7678;50.058;8.306;2023-09-19T07:25:22;6.33;;;2.73;;
15155;SDS011;7678;50.058;8.306;2023-09-19T07:27:50;6.87;;;2.87;;
15155;SDS011;7678;50.058;8.306;2023-09-19T07:30:18;11.23;;;3.23;;
15155;SDS011;7678;50.058;8.306;2023-09-19T07:32:47;10.40;;;3.10;;
15155;SDS011;7678;50.058;8.306;2023-09-19T07:35:15;9.73;;;2.60;;
15155;SDS011;7678;50.058;8.306;2023-09-19T07:37:48;33.07;;;2.80;;
15155;SDS011;7678;50.058;8.306;2023-09-19T07:40:18;8.10;;;2.40;;
15155;SDS011;7678;50.058;8.306;2023-09-19T07:42:49;5.63;;;2.90;;
15155;SDS011;7678;50.058;8.306;2023-09-19T07:45:17;7.63;;;2.50;;
15155;SDS011;7678;50.058;8.306;2023-09-19T07:47:46;7.50;;;2.63;;
15155;SDS011;7678;50.058;8.306;2023-09-19T07:50:16;4.27;;;1.47;;
15155;SDS011;7678;50.058;8.306;2023-09-19T07:52:49;7.67;;;1.70;;
15155;SDS011;7678;50.058;8.306;2023-09-19T07:55:19;6.33;;;2.37;;
15155;SDS011;7678;50.058;8.306;2023-09-19T07:57:50;7.27;;;2.03;;
15155;SDS011;7678;50.058;8.306;2023-09-19T08:00:20;9.47;;;2.50;;
15155;SDS011;7678;50.058;8.306;2023-09-19T08:02:49;6.10;;;2.30;;
15155;SDS011;7678;50.058;8.306;2023-09-19T08:05:29;7.23;;;2.40;;
15155;SDS011;7678;50.058;8.306;2023-09-19T08:08:01;4.63;;;2.23;;
15155;SDS011;7678;50.058;8.306;2023-09-19T08:10:31;5.93;;;2.27;;
15155;SDS011;7678;50.058;8.306;2023-09-19T08:13:02;5.23;;;2.17;;
15155;SDS011;7678;50.058;8.306;2023-09-19T08:15:30;5.20;;;2.30;;
15155;SDS011;7678;50.058;8.306;2023-09-19T08:18:01;6.83;;;2.53;;
15155;SDS011;7678;50.058;8.306;2023-09-19T08:20:30;6.33;;;2.13;;
15155;SDS011;7678;50.058;8.306;2023-09-19T08:22:59;5.20;;;2.03;;
15155;SDS011;7678;50.058;8.306;2023-09-19T08:25:28;6.03;;;2.17;;
15155;SDS011;7678;50.058;8.306;2023-09-19T08:27:57;6.17;;;2.20;;
15155;SDS011;7678;50.058;8.306;2023-09-19T08:30:27;3.73;;;2.23;;
15155;SDS011;7678;50.058;8.306;2023-09-19T08:32:57;5.07;;;2.20;;
15155;SDS011;7678;50.058;8.306;2023-09-19T08:35:25;7.03;;;2.50;;
15155;SDS011;7678;50.058;8.306;2023-09-19T08:37:55;7.47;;;2.50;;
15155;SDS011;7678;50.058;8.306;2023-09-19T08:40:23;6.47;;;2.10;;
15155;SDS011;7678;50.058;8.306;2023-09-19T08:42:58;8.87;;;2.47;;
15155;SDS011;7678;50.058;8.306;2023-09-19T08:45:26;5.87;;;2.40;;
15155;SDS011;7678;50.058;8.306;2023-09-19T08:48:02;6.60;;;1.93;;
15155;SDS011;7678;50.058;8.306;2023-09-19T08:50:42;5.97;;;1.97;;
15155;SDS011;7678;50.058;8.306;2023-09-19T08:53:16;9.07;;;2.13;;
15155;SDS011;7678;50.058;8.306;2023-09-19T08:55:50;6.47;;;2.27;;
15155;SDS011;7678;50.058;8.306;2023-09-19T08:58:22;9.63;;;2.20;;
15155;SDS011;7678;50.058;8.306;2023-09-19T09:00:56;6.73;;;2.27;;
15155;SDS011;7678;50.058;8.306;2023-09-19T09:03:29;7.93;;;2.53;;
15155;SDS011;7678;50.058;8.306;2023-09-19T09:06:03;6.67;;;2.10;;
15155;SDS011;7678;50.058;8.306;2023-09-19T09:08:31;4.73;;;1.83;;
15155;SDS011;7678;50.058;8.306;2023-09-19T09:11:00;11.93;;;2.30;;
15155;SDS011;7678;50.058;8.306;2023-09-19T09:13:30;9.00;;;2.30;;
15155;SDS011;7678;50.058;8.306;2023-09-19T09:15:58;8.63;;;2.43;;
15155;SDS011;7678;50.058;8.306;2023-09-19T09:18:29;8.70;;;2.40;;
15155;SDS011;7678;50.058;8.306;2023-09-19T09:20:57;6.57;;;2.13;;
15155;SDS011;7678;50.058;8.306;2023-09-19T09:23:37;9.50;;;2.53;;
15155;SDS011;7678;50.058;8.306;2023-09-19T09:26:05;6.57;;;2.37;;
15155;SDS011;7678;50.058;8.306;2023-09-19T09:28:44;7.80;;;3.07;;
15155;SDS011;7678;50.058;8.306;2023-09-19T09:31:21;7.03;;;2.43;;
15155;SDS011;7678;50.058;8.306;2023-09-19T09:33:54;8.60;;;2.57;;
15155;SDS011;7678;50.058;8.306;2023-09-19T09:36:33;7.37;;;2.57;;
15155;SDS011;7678;50.058;8.306;2023-09-19T09:39:03;7.30;;;2.47;;
15155;SDS011;7678;50.058;8.306;2023-09-19T09:41:43;9.97;;;2.60;;
15155;SDS011;7678;50.058;8.306;2023-09-19T09:44:14;8.80;;;2.60;;
15155;SDS011;7678;50.058;8.306;2023-09-19T09:46:44;10.77;;;2.90;;
15155;SDS011;7678;50.058;8.306;2023-09-19T09:49:42;7.87;;;2.70;;
15155;SDS011;7678;50.058;8.306;2023-09-19T09:52:21;6.03;;;2.70;;
15155;SDS011;7678;50.058;8.306;2023-09-19T09:55:00;6.97;;;2.50;;
15155;SDS011;7678;50.058;8.306;2023-09-19T09:57:32;10.53;;;3.10;;
15155;SDS011;7678;50.058;8.306;2023-09-19T10:00:03;8.93;;;2.57;;
15155;SDS011;7678;50.058;8.306;2023-09-19T10:02:46;11.93;;;2.63;;
15155;SDS011;7678;50.058;8.306;2023-09-19T10:05:18;12.07;;;2.53;;
15155;SDS011;7678;50.058;8.306;2023-09-19T10:07:54;8.90;;;3.13;;
15155;SDS011;7678;50.058;8.306;2023-09-19T10:10:31;8.97;;;2.73;;
15155;SDS011;7678;50.058;8.306;2023-09-19T10:13:20;9.97;;;2.93;;
15155;SDS011;7678;50.058;8.306;2023-09-19T10:15:51;6.40;;;3.07;;
15155;SDS011;7678;50.058;8.306;2023-09-19T10:18:22;10.23;;;3.27;;
15155;SDS011;7678;50.058;8.306;2023-09-19T10:20:52;6.93;;;2.33;;
15155;SDS011;7678;50.058;8.306;2023-09-19T10:23:21;8.20;;;2.80;;
15155;SDS011;7678;50.058;8.306;2023-09-19T10:25:52;5.37;;;2.50;;
15155;SDS011;7678;50.058;8.306;2023-09-19T10:28:21;11.47;;;2.60;;
15155;SDS011;7678;50.058;8.306;2023-09-19T10:30:51;9.70;;;2.80;;
15155;SDS011;7678;50.058;8.306;2023-09-19T10:33:20;15.13;;;2.70;;
15155;SDS011;7678;50.058;8.306;2023-09-19T10:35:52;7.57;;;2.50;;
15155;SDS011;7678;50.058;8.306;2023-09-19T10:38:26;5.97;;;2.50;;
15155;SDS011;7678;50.058;8.306;2023-09-19T10:40:56;11.70;;;3.30;;
15155;SDS011;7678;50.058;8.306;2023-09-19T10:43:29;8.57;;;2.60;;
15155;SDS011;7678;50.058;8.306;2023-09-19T10:46:07;9.13;;;2.87;;
15155;SDS011;7678;50.058;8.306;2023-09-19T10:48:43;9.10;;;3.10;;
15155;SDS011;7678;50.058;8.306;2023-09-19T10:51:20;13.47;;;3.30;;
15155;SDS011;7678;50.058;8.306;2023-09-19T10:53:52;5.37;;;2.43;;
15155;SDS011;7678;50.058;8.306;2023-09-19T10:56:24;10.73;;;2.57;;
15155;SDS011;7678;50.058;8.306;2023-09-19T10:59:05;7.67;;;2.40;;
15155;SDS011;7678;50.058;8.306;2023-09-19T11:01:47;11.50;;;2.77;;
15155;SDS011;7678;50.058;8.306;2023-09-19T11:04:23;9.10;;;2.10;;
15155;SDS011;7678;50.058;8.306;2023-09-19T11:07:03;8.00;;;2.23;;
15155;SDS011;7678;50.058;8.306;2023-09-19T11:09:48;8.87;;;2.70;;
15155;SDS011;7678;50.058;8.306;2023-09-19T11:21:40;7.50;;;2.40;;
15155;SDS011;7678;50.058;8.306;2023-09-19T11:24:29;6.83;;;2.57;;
15155;SDS011;7678;50.058;8.306;2023-09-19T11:27:11;10.87;;;2.37;;
15155;SDS011;7678;50.058;8.306;2023-09-19T11:29:44;6.70;;;2.43;;
15155;SDS011;7678;50.058;8.306;2023-09-19T11:32:13;9.57;;;2.53;;
15155;SDS011;7678;50.058;8.306;2023-09-19T11:34:49;7.83;;;2.73;;
15155;SDS011;7678;50.058;8.306;2023-09-19T11:40:29;9.20;;;2.27;;
15155;SDS011;7678;50.058;8.306;2023-09-19T11:42:58;10.57;;;2.70;;
15155;SDS011;7678;50.058;8.306;2023-09-19T11:48:32;9.73;;;2.70;;
15155;SDS011;7678;50.058;8.306;2023-09-19T11:51:16;7.03;;;2.27;;
15155;SDS011;7678;50.058;8.306;2023-09-19T11:53:53;8.63;;;2.53;;
15155;SDS011;7678;50.058;8.306;2023-09-19T11:56:23;6.83;;;2.70;;
15155;SDS011;7678;50.058;8.306;2023-09-19T11:58:54;6.83;;;2.30;;
15155;SDS011;7678;50.058;8.306;2023-09-19T12:01:27;6.57;;;2.20;;
15155;SDS011;7678;50.058;8.306;2023-09-19T12:03:59;5.93;;;2.30;;
15155;SDS011;7678;50.058;8.306;2023-09-19T12:06:33;7.27;;;2.53;;
15155;SDS011;7678;50.058;8.306;2023-09-19T12:09:03;6.80;;;2.40;;
15155;SDS011;7678;50.058;8.306;2023-09-19T12:11:40;7.00;;;2.43;;
15155;SDS011;7678;50.058;8.306;2023-09-19T12:14:10;8.57;;;2.20;;
15155;SDS011;7678;50.058;8.306;2023-09-19T12:16:40;8.20;;;2.57;;
15155;SDS011;7678;50.058;8.306;2023-09-19T12:19:22;7.57;;;2.40;;
15155;SDS011;7678;50.058;8.306;2023-09-19T12:21:55;6.03;;;2.30;;
15155;SDS011;7678;50.058;8.306;2023-09-19T12:24:26;9.80;;;2.60;;
15155;SDS011;7678;50.058;8.306;2023-09-19T12:27:00;6.40;;;2.60;;
15155;SDS011;7678;50.058;8.306;2023-09-19T12:29:32;4.90;;;2.10;;
15155;SDS011;7678;50.058;8.306;2023-09-19T12:32:09;11.20;;;2.20;;
15155;SDS011;7678;50.058;8.306;2023-09-19T12:34:37;6.13;;;2.23;;
15155;SDS011;7678;50.058;8.306;2023-09-19T12:37:11;6.33;;;2.17;;
15155;SDS011;7678;50.058;8.306;2023-09-19T12:39:42;5.60;;;2.10;;
15155;SDS011;7678;50.058;8.306;2023-09-19T12:42:15;9.00;;;2.30;;
15155;SDS011;7678;50.058;8.306;2023-09-19T12:44:45;9.13;;;2.53;;
15155;SDS011;7678;50.058;8.306;2023-09-19T12:47:19;5.97;;;2.00;;
15155;SDS011;7678;50.058;8.306;2023-09-19T12:50:04;5.63;;;1.90;;
15155;SDS011;7678;50.058;8.306;2023-09-19T12:52:42;5.47;;;1.80;;
15155;SDS011;7678;50.058;8.306;2023-09-19T12:55:20;5.37;;;2.10;;
15155;SDS011;7678;50.058;8.306;2023-09-19T12:58:00;6.07;;;2.10;;
15155;SDS011;7678;50.058;8.306;2023-09-19T13:00:36;8.13;;;2.07;;
15155;SDS011;7678;50.058;8.306;2023-09-19T13:03:12;8.43;;;1.90;;
15155;SDS011;7678;50.058;8.306;2023-09-19T13:05:51;9.00;;;2.50;;
15155;SDS011;7678;50.058;8.306;2023-09-19T13:08:31;5.67;;;2.10;;
15155;SDS011;7678;50.058;8.306;2023-09-19T13:11:04;5.03;;;1.90;;
15155;SDS011;7678;50.058;8.306;2023-09-19T13:13:41;6.70;;;2.40;;
15155;SDS011;7678;50.058;8.306;2023-09-19T13:16:16;5.87;;;2.20;;
15155;SDS011;7678;50.058;8.306;2023-09-19T13:18:49;5.07;;;2.07;;
15155;SDS011;7678;50.058;8.306;2023-09-19T13:21:27;4.87;;;2.07;;
15155;SDS011;7678;50.058;8.306;2023-09-19T13:26:52;8.40;;;2.20;;
15155;SDS011;7678;50.058;8.306;2023-09-19T13:29:20;6.17;;;1.90;;
15155;SDS011;7678;50.058;8.306;2023-09-19T13:31:49;6.40;;;2.00;;
15155;SDS011;7678;50.058;8.306;2023-09-19T13:34:20;5.33;;;2.07;;
15155;SDS011;7678;50.058;8.306;2023-09-19T13:36:48;6.43;;;1.70;;
15155;SDS011;7678;50.058;8.306;2023-09-19T13:39:17;5.20;;;2.50;;
15155;SDS011;7678;50.058;8.306;2023-09-19T13:41:51;5.47;;;1.87;;
15155;SDS011;7678;50.058;8.306;2023-09-19T13:44:21;8.03;;;2.50;;
15155;SDS011;7678;50.058;8.306;2023-09-19T13:46:50;6.57;;;2.27;;
15155;SDS011;7678;50.058;8.306;2023-09-19T13:49:21;5.03;;;2.50;;
15155;SDS011;7678;50.058;8.306;2023-09-19T13:51:50;8.03;;;2.10;;
15155;SDS011;7678;50.058;8.306;2023-09-19T13:54:20;4.43;;;1.93;;
15155;SDS011;7678;50.058;8.306;2023-09-19T13:56:48;6.90;;;1.80;;
15155;SDS011;7678;50.058;8.306;2023-09-19T13:59:16;5.50;;;2.00;;
15155;SDS011;7678;50.058;8.306;2023-09-19T14:01:45;4.23;;;2.10;;
15155;SDS011;7678;50.058;8.306;2023-09-19T14:04:13;3.80;;;2.13;;
15155;SDS011;7678;50.058;8.306;2023-09-19T14:06:41;6.77;;;2.00;;
15155;SDS011;7678;50.058;8.306;2023-09-19T14:09:10;4.03;;;1.97;;
15155;SDS011;7678;50.058;8.306;2023-09-19T14:11:41;5.13;;;1.67;;
15155;SDS011;7678;50.058;8.306;2023-09-19T14:14:13;4.17;;;1.60;;
15155;SDS011;7678;50.058;8.306;2023-09-19T14:16:42;5.37;;;1.97;;
15155;SDS011;7678;50.058;8.306;2023-09-19T14:19:10;6.70;;;1.67;;
15155;SDS011;7678;50.058;8.306;2023-09-19T14:21:40;5.67;;;1.80;;
15155;SDS011;7678;50.058;8.306;2023-09-19T14:24:09;6.90;;;2.00;;
15155;SDS011;7678;50.058;8.306;2023-09-19T14:26:38;6.80;;;2.10;;
15155;SDS011;7678;50.058;8.306;2023-09-19T14:29:09;3.83;;;1.60;;
15155;SDS011;7678;50.058;8.306;2023-09-19T14:31:39;5.37;;;1.90;;
15155;SDS011;7678;50.058;8.306;2023-09-19T14:34:08;5.13;;;1.80;;
15155;SDS011;7678;50.058;8.306;2023-09-19T14:36:37;9.63;;;2.03;;
15155;SDS011;7678;50.058;8.306;2023-09-19T14:39:06;7.90;;;1.87;;
15155;SDS011;7678;50.058;8.306;2023-09-19T14:41:35;5.67;;;1.87;;
15155;SDS011;7678;50.058;8.306;2023-09-19T14:44:05;6.03;;;2.10;;
15155;SDS011;7678;50.058;8.306;2023-09-19T14:46:35;7.00;;;1.80;;
15155;SDS011;7678;50.058;8.306;2023-09-19T14:49:06;5.33;;;1.63;;
15155;SDS011;7678;50.058;8.306;2023-09-19T14:51:37;5.73;;;2.00;;
15155;SDS011;7678;50.058;8.306;2023-09-19T14:54:07;4.83;;;1.60;;
15155;SDS011;7678;50.058;8.306;2023-09-19T14:56:35;5.37;;;1.87;;
15155;SDS011;7678;50.058;8.306;2023-09-19T14:59:05;4.63;;;2.00;;
15155;SDS011;7678;50.058;8.306;2023-09-19T15:01:34;3.77;;;1.60;;
15155;SDS011;7678;50.058;8.306;2023-09-19T15:04:02;5.00;;;1.60;;
15155;SDS011;7678;50.058;8.306;2023-09-19T15:06:30;4.23;;;1.90;;
15155;SDS011;7678;50.058;8.306;2023-09-19T15:08:58;5.47;;;1.70;;
15155;SDS011;7678;50.058;8.306;2023-09-19T15:11:27;5.57;;;1.90;;
15155;SDS011;7678;50.058;8.306;2023-09-19T15:13:57;9.40;;;2.30;;
15155;SDS011;7678;50.058;8.306;2023-09-19T15:16:27;5.83;;;2.00;;
15155;SDS011;7678;50.058;8.306;2023-09-19T15:18:55;4.97;;;2.00;;
15155;SDS011;7678;50.058;8.306;2023-09-19T15:21:23;10.43;;;1.97;;
15155;SDS011;7678;50.058;8.306;2023-09-19T15:23:52;4.87;;;1.77;;
15155;SDS011;7678;50.058;8.306;2023-09-19T15:26:20;6.03;;;2.03;;
15155;SDS011;7678;50.058;8.306;2023-09-19T15:28:48;3.80;;;1.80;;
15155;SDS011;7678;50.058;8.306;2023-09-19T15:31:17;3.13;;;1.67;;
15155;SDS011;7678;50.058;8.306;2023-09-19T15:33:47;7.63;;;1.93;;
15155;SDS011;7678;50.058;8.306;2023-09-19T15:36:15;4.47;;;2.10;;
15155;SDS011;7678;50.058;8.306;2023-09-19T15:38:55;4.20;;;1.80;;
15155;SDS011;7678;50.058;8.306;2023-09-19T15:41:25;5.67;;;1.70;;
15155;SDS011;7678;50.058;8.306;2023-09-19T15:43:54;4.33;;;1.70;;
15155;SDS011;7678;50.058;8.306;2023-09-19T15:46:23;3.50;;;1.60;;
15155;SDS011;7678;50.058;8.306;2023-09-19T15:48:54;5.23;;;1.90;;